sensor_id;sensor_type;location;lat;lon;timestamp;P1;durP1;ratioP1;P2;durP2;ratioP2
50417;SDS011;36346;48.280;14.292;2024-02-04T00:01:33;4.82;;;4.82;;
50417;SDS011;36346;48.280;14.292;2024-02-04T00:04:02;4.83;;;4.83;;
50417;SDS011;36346;48.280;14.292;2024-02-04T00:06:30;4.94;;;4.94;;
50417;SDS011;36346;48.280;14.292;2024-02-04T00:08:58;4.63;;;4.63;;
50417;SDS011;36346;48.280;14.292;2024-02-04T00:11:26;4.79;;;4.79;;
50417;SDS011;36346;48.280;14.292;2024-02-04T00:13:54;5.00;;;5.00;;
50417;SDS011;36346;48.280;14.292;2024-02-04T00:16:22;5.10;;;5.10;;
50417;SDS011;36346;48.280;14.292;2024-02-04T00:18:50;5.22;;;5.22;;
50417;SDS011;36346;48.280;14.292;2024-02-04T00:21:18;5.31;;;5.31;;
50417;SDS011;36346;48.280;14.292;2024-02-04T00:23:46;5.40;;;5.40;;
50417;SDS011;36346;48.280;14.292;2024-02-04T00:26:14;5.83;;;5.83;;
50417;SDS011;36346;48.280;14.292;2024-02-04T00:28:42;5.86;;;5.86;;
50417;SDS011;36346;48.280;14.292;2024-02-04T00:31:11;5.60;;;5.60;;
50417;SDS011;36346;48.280;14.292;2024-02-04T00:33:39;6.43;;;6.43;;
50417;SDS011;36346;48.280;14.292;2024-02-04T00:36:07;6.27;;;6.27;;
50417;SDS011;36346;48.280;14.292;2024-02-04T00:38:35;6.14;;;6.14;;
50417;SDS011;36346;48.280;14.292;2024-02-04T00:41:03;6.43;;;6.43;;
50417;SDS011;36346;48.280;14.292;2024-02-04T00:43:31;6.66;;;6.66;;
50417;SDS011;36346;48.280;14.292;2024-02-04T00:45:59;6.30;;;6.30;;
50417;SDS011;36346;48.280;14.292;2024-02-04T00:48:29;6.21;;;6.21;;
50417;SDS011;36346;48.280;14.292;2024-02-04T00:50:57;6.56;;;6.56;;
50417;SDS011;36346;48.280;14.292;2024-02-04T00:53:25;6.17;;;6.17;;
50417;SDS011;36346;48.280;14.292;2024-02-04T00:55:55;6.25;;;6.25;;
50417;SDS011;36346;48.280;14.292;2024-02-04T00:58:23;6.52;;;6.52;;
50417;SDS011;36346;48.280;14.292;2024-02-04T01:00:51;6.99;;;6.99;;
50417;SDS011;36346;48.280;14.292;2024-02-04T01:03:19;6.93;;;6.93;;
50417;SDS011;36346;48.280;14.292;2024-02-04T01:05:47;6.63;;;6.63;;
50417;SDS011;36346;48.280;14.292;2024-02-04T01:08:16;6.64;;;6.64;;
50417;SDS011;36346;48.280;14.292;2024-02-04T01:10:43;6.64;;;6.64;;
50417;SDS011;36346;48.280;14.292;2024-02-04T01:13:11;6.66;;;6.66;;
50417;SDS011;36346;48.280;14.292;2024-02-04T01:15:39;7.32;;;7.32;;
50417;SDS011;36346;48.280;14.292;2024-02-04T01:18:07;7.17;;;7.17;;
50417;SDS011;36346;48.280;14.292;2024-02-04T01:20:35;7.45;;;7.45;;
50417;SDS011;36346;48.280;14.292;2024-02-04T01:23:03;7.42;;;7.42;;
50417;SDS011;36346;48.280;14.292;2024-02-04T01:25:31;7.53;;;7.53;;
50417;SDS011;36346;48.280;14.292;2024-02-04T01:27:59;7.01;;;7.01;;
50417;SDS011;36346;48.280;14.292;2024-02-04T01:30:27;7.92;;;7.92;;
50417;SDS011;36346;48.280;14.292;2024-02-04T01:32:58;7.61;;;7.61;;
50417;SDS011;36346;48.280;14.292;2024-02-04T01:35:26;7.41;;;7.41;;
50417;SDS011;36346;48.280;14.292;2024-02-04T01:37:54;7.38;;;7.38;;
50417;SDS011;36346;48.280;14.292;2024-02-04T01:40:22;7.03;;;7.03;;
50417;SDS011;36346;48.280;14.292;2024-02-04T01:42:50;7.01;;;7.01;;
50417;SDS011;36346;48.280;14.292;2024-02-04T01:45:18;7.25;;;7.25;;
50417;SDS011;36346;48.280;14.292;2024-02-04T01:47:46;7.14;;;7.14;;
50417;SDS011;36346;48.280;14.292;2024-02-04T01:50:14;7.38;;;7.38;;
50417;SDS011;36346;48.280;14.292;2024-02-04T01:52:42;7.14;;;7.14;;
50417;SDS011;36346;48.280;14.292;2024-02-04T01:55:11;6.90;;;6.90;;
50417;SDS011;36346;48.280;14.292;2024-02-04T01:57:39;6.94;;;6.94;;
50417;SDS011;36346;48.280;14.292;2024-02-04T02:00:08;7.28;;;7.28;;
50417;SDS011;36346;48.280;14.292;2024-02-04T02:02:41;7.16;;;7.16;;
50417;SDS011;36346;48.280;14.292;2024-02-04T02:05:09;7.33;;;7.33;;
50417;SDS011;36346;48.280;14.292;2024-02-04T02:07:37;7.04;;;7.04;;
50417;SDS011;36346;48.280;14.292;2024-02-04T02:10:05;7.59;;;7.59;;
50417;SDS011;36346;48.280;14.292;2024-02-04T02:12:39;7.06;;;7.06;;
50417;SDS011;36346;48.280;14.292;2024-02-04T02:15:32;6.79;;;6.79;;
50417;SDS011;36346;48.280;14.292;2024-02-04T02:18:10;7.23;;;7.23;;
50417;SDS011;36346;48.280;14.292;2024-02-04T02:24:03;7.34;;;7.34;;
50417;SDS011;36346;48.280;14.292;2024-02-04T02:26:37;7.00;;;7.00;;
50417;SDS011;36346;48.280;14.292;2024-02-04T02:29:06;6.97;;;6.97;;
50417;SDS011;36346;48.280;14.292;2024-02-04T02:31:36;7.03;;;7.03;;
50417;SDS011;36346;48.280;14.292;2024-02-04T02:34:15;6.66;;;6.66;;
50417;SDS011;36346;48.280;14.292;2024-02-04T02:37:07;7.27;;;7.27;;
50417;SDS011;36346;48.280;14.292;2024-02-04T02:42:38;7.28;;;7.28;;
50417;SDS011;36346;48.280;14.292;2024-02-04T02:45:10;7.18;;;7.18;;
50417;SDS011;36346;48.280;14.292;2024-02-04T02:47:40;7.18;;;7.18;;
50417;SDS011;36346;48.280;14.292;2024-02-04T02:50:10;6.94;;;6.94;;
50417;SDS011;36346;48.280;14.292;2024-02-04T02:52:39;6.89;;;6.89;;
50417;SDS011;36346;48.280;14.292;2024-02-04T02:55:07;7.39;;;7.39;;
50417;SDS011;36346;48.280;14.292;2024-02-04T02:57:35;7.14;;;7.14;;
50417;SDS011;36346;48.280;14.292;2024-02-04T03:00:03;7.45;;;7.45;;
50417;SDS011;36346;48.280;14.292;2024-02-04T03:02:33;7.44;;;7.44;;
50417;SDS011;36346;48.280;14.292;2024-02-04T03:05:01;7.26;;;7.26;;
50417;SDS011;36346;48.280;14.292;2024-02-04T03:07:30;7.51;;;7.51;;
50417;SDS011;36346;48.280;14.292;2024-02-04T03:09:58;7.49;;;7.49;;
50417;SDS011;36346;48.280;14.292;2024-02-04T03:12:27;7.40;;;7.40;;
50417;SDS011;36346;48.280;14.292;2024-02-04T03:14:55;7.78;;;7.78;;
50417;SDS011;36346;48.280;14.292;2024-02-04T03:17:23;7.60;;;7.60;;
50417;SDS011;36346;48.280;14.292;2024-02-04T03:19:53;8.29;;;8.29;;
50417;SDS011;36346;48.280;14.292;2024-02-04T03:22:23;8.31;;;8.31;;
50417;SDS011;36346;48.280;14.292;2024-02-04T03:24:51;8.41;;;8.41;;
50417;SDS011;36346;48.280;14.292;2024-02-04T03:27:20;8.67;;;8.67;;
50417;SDS011;36346;48.280;14.292;2024-02-04T03:29:49;8.79;;;8.79;;
50417;SDS011;36346;48.280;14.292;2024-02-04T03:32:17;8.46;;;8.46;;
50417;SDS011;36346;48.280;14.292;2024-02-04T03:34:45;8.38;;;8.38;;
50417;SDS011;36346;48.280;14.292;2024-02-04T03:37:13;8.67;;;8.67;;
50417;SDS011;36346;48.280;14.292;2024-02-04T03:39:41;8.31;;;8.31;;
50417;SDS011;36346;48.280;14.292;2024-02-04T03:42:09;8.29;;;8.29;;
50417;SDS011;36346;48.280;14.292;2024-02-04T03:44:37;8.62;;;8.62;;
50417;SDS011;36346;48.280;14.292;2024-02-04T03:47:05;8.60;;;8.60;;
50417;SDS011;36346;48.280;14.292;2024-02-04T03:49:34;8.96;;;8.96;;
50417;SDS011;36346;48.280;14.292;2024-02-04T03:52:02;8.75;;;8.75;;
50417;SDS011;36346;48.280;14.292;2024-02-04T03:54:30;8.51;;;8.51;;
50417;SDS011;36346;48.280;14.292;2024-02-04T03:56:58;8.55;;;8.55;;
50417;SDS011;36346;48.280;14.292;2024-02-04T03:59:26;8.65;;;8.65;;
50417;SDS011;36346;48.280;14.292;2024-02-04T04:01:54;8.83;;;8.83;;
50417;SDS011;36346;48.280;14.292;2024-02-04T04:04:22;8.70;;;8.70;;
50417;SDS011;36346;48.280;14.292;2024-02-04T04:06:50;8.54;;;8.54;;
50417;SDS011;36346;48.280;14.292;2024-02-04T04:09:18;8.59;;;8.59;;
50417;SDS011;36346;48.280;14.292;2024-02-04T04:11:46;8.82;;;8.82;;
50417;SDS011;36346;48.280;14.292;2024-02-04T04:14:14;8.84;;;8.84;;
50417;SDS011;36346;48.280;14.292;2024-02-04T04:16:42;8.96;;;8.96;;
50417;SDS011;36346;48.280;14.292;2024-02-04T04:19:10;9.02;;;9.02;;
50417;SDS011;36346;48.280;14.292;2024-02-04T04:21:38;9.23;;;9.23;;
50417;SDS011;36346;48.280;14.292;2024-02-04T04:24:08;9.11;;;9.11;;
50417;SDS011;36346;48.280;14.292;2024-02-04T04:26:35;9.65;;;9.65;;
50417;SDS011;36346;48.280;14.292;2024-02-04T04:29:04;8.91;;;8.91;;
50417;SDS011;36346;48.280;14.292;2024-02-04T04:31:32;8.94;;;8.94;;
50417;SDS011;36346;48.280;14.292;2024-02-04T04:34:00;9.05;;;9.05;;
50417;SDS011;36346;48.280;14.292;2024-02-04T04:36:28;8.78;;;8.78;;
50417;SDS011;36346;48.280;14.292;2024-02-04T04:38:56;8.65;;;8.65;;
50417;SDS011;36346;48.280;14.292;2024-02-04T04:41:24;8.77;;;8.77;;
50417;SDS011;36346;48.280;14.292;2024-02-04T04:43:53;8.36;;;8.36;;
50417;SDS011;36346;48.280;14.292;2024-02-04T04:46:20;8.54;;;8.54;;
50417;SDS011;36346;48.280;14.292;2024-02-04T04:48:48;8.32;;;8.32;;
50417;SDS011;36346;48.280;14.292;2024-02-04T04:51:17;8.21;;;8.21;;
50417;SDS011;36346;48.280;14.292;2024-02-04T04:53:44;8.36;;;8.36;;
50417;SDS011;36346;48.280;14.292;2024-02-04T04:56:12;8.49;;;8.49;;
50417;SDS011;36346;48.280;14.292;2024-02-04T04:58:40;8.09;;;8.09;;
50417;SDS011;36346;48.280;14.292;2024-02-04T05:01:08;7.85;;;7.85;;
50417;SDS011;36346;48.280;14.292;2024-02-04T05:03:36;8.28;;;8.28;;
50417;SDS011;36346;48.280;14.292;2024-02-04T05:06:05;8.63;;;8.63;;
50417;SDS011;36346;48.280;14.292;2024-02-04T05:08:32;8.24;;;8.24;;
50417;SDS011;36346;48.280;14.292;2024-02-04T05:11:00;7.77;;;7.77;;
50417;SDS011;36346;48.280;14.292;2024-02-04T05:13:28;8.01;;;8.01;;
50417;SDS011;36346;48.280;14.292;2024-02-04T05:15:56;7.74;;;7.74;;
50417;SDS011;36346;48.280;14.292;2024-02-04T05:18:24;7.22;;;7.22;;
50417;SDS011;36346;48.280;14.292;2024-02-04T05:20:54;7.53;;;7.53;;
50417;SDS011;36346;48.280;14.292;2024-02-04T05:23:22;7.80;;;7.80;;
50417;SDS011;36346;48.280;14.292;2024-02-04T05:25:50;6.80;;;6.80;;
50417;SDS011;36346;48.280;14.292;2024-02-04T05:28:18;6.83;;;6.83;;
50417;SDS011;36346;48.280;14.292;2024-02-04T05:30:46;7.04;;;7.04;;
50417;SDS011;36346;48.280;14.292;2024-02-04T05:33:14;6.75;;;6.75;;
50417;SDS011;36346;48.280;14.292;2024-02-04T05:35:42;6.33;;;6.33;;
50417;SDS011;36346;48.280;14.292;2024-02-04T05:38:10;6.73;;;6.73;;
50417;SDS011;36346;48.280;14.292;2024-02-04T05:40:38;6.52;;;6.52;;
50417;SDS011;36346;48.280;14.292;2024-02-04T05:43:06;6.50;;;6.50;;
50417;SDS011;36346;48.280;14.292;2024-02-04T05:45:39;6.29;;;6.29;;
50417;SDS011;36346;48.280;14.292;2024-02-04T05:48:09;5.79;;;5.79;;
50417;SDS011;36346;48.280;14.292;2024-02-04T05:50:37;5.95;;;5.95;;
50417;SDS011;36346;48.280;14.292;2024-02-04T05:53:05;5.56;;;5.56;;
50417;SDS011;36346;48.280;14.292;2024-02-04T05:55:33;5.58;;;5.58;;
50417;SDS011;36346;48.280;14.292;2024-02-04T05:58:01;5.53;;;5.53;;
50417;SDS011;36346;48.280;14.292;2024-02-04T06:00:29;5.16;;;5.16;;
50417;SDS011;36346;48.280;14.292;2024-02-04T06:02:57;5.11;;;5.11;;
50417;SDS011;36346;48.280;14.292;2024-02-04T06:05:25;5.06;;;5.06;;
50417;SDS011;36346;48.280;14.292;2024-02-04T06:07:53;5.00;;;4.97;;
50417;SDS011;36346;48.280;14.292;2024-02-04T06:10:21;5.22;;;5.22;;
50417;SDS011;36346;48.280;14.292;2024-02-04T06:12:49;5.10;;;5.10;;
50417;SDS011;36346;48.280;14.292;2024-02-04T06:15:17;4.83;;;4.83;;
50417;SDS011;36346;48.280;14.292;2024-02-04T06:17:48;4.71;;;4.71;;
50417;SDS011;36346;48.280;14.292;2024-02-04T06:20:16;4.88;;;4.88;;
50417;SDS011;36346;48.280;14.292;2024-02-04T06:22:44;4.84;;;4.84;;
50417;SDS011;36346;48.280;14.292;2024-02-04T06:25:12;4.66;;;4.66;;
50417;SDS011;36346;48.280;14.292;2024-02-04T06:27:40;10.23;;;10.18;;
50417;SDS011;36346;48.280;14.292;2024-02-04T06:30:08;9.27;;;9.10;;
50417;SDS011;36346;48.280;14.292;2024-02-04T06:32:37;6.13;;;6.07;;
50417;SDS011;36346;48.280;14.292;2024-02-04T06:35:06;4.80;;;4.79;;
50417;SDS011;36346;48.280;14.292;2024-02-04T06:37:34;4.74;;;4.74;;
50417;SDS011;36346;48.280;14.292;2024-02-04T06:40:02;4.54;;;4.54;;
50417;SDS011;36346;48.280;14.292;2024-02-04T06:42:32;4.61;;;4.61;;
50417;SDS011;36346;48.280;14.292;2024-02-04T06:45:00;4.66;;;4.66;;
50417;SDS011;36346;48.280;14.292;2024-02-04T06:47:28;4.21;;;4.21;;
50417;SDS011;36346;48.280;14.292;2024-02-04T06:49:57;4.10;;;4.10;;
50417;SDS011;36346;48.280;14.292;2024-02-04T06:52:25;3.88;;;3.88;;
50417;SDS011;36346;48.280;14.292;2024-02-04T06:54:53;4.02;;;4.02;;
50417;SDS011;36346;48.280;14.292;2024-02-04T06:57:21;3.78;;;3.78;;
50417;SDS011;36346;48.280;14.292;2024-02-04T06:59:49;3.74;;;3.74;;
50417;SDS011;36346;48.280;14.292;2024-02-04T07:02:16;4.25;;;4.25;;
50417;SDS011;36346;48.280;14.292;2024-02-04T07:04:44;4.05;;;4.05;;
50417;SDS011;36346;48.280;14.292;2024-02-04T07:07:12;4.19;;;4.19;;
50417;SDS011;36346;48.280;14.292;2024-02-04T07:09:41;4.04;;;4.04;;
50417;SDS011;36346;48.280;14.292;2024-02-04T07:12:09;4.15;;;4.15;;
50417;SDS011;36346;48.280;14.292;2024-02-04T07:14:37;3.97;;;3.97;;
50417;SDS011;36346;48.280;14.292;2024-02-04T07:17:05;3.75;;;3.75;;
50417;SDS011;36346;48.280;14.292;2024-02-04T07:19:33;3.75;;;3.75;;
50417;SDS011;36346;48.280;14.292;2024-02-04T07:22:03;3.77;;;3.77;;
50417;SDS011;36346;48.280;14.292;2024-02-04T07:24:31;4.04;;;4.04;;
50417;SDS011;36346;48.280;14.292;2024-02-04T07:26:59;3.67;;;3.67;;
50417;SDS011;36346;48.280;14.292;2024-02-04T07:29:28;4.12;;;4.12;;
50417;SDS011;36346;48.280;14.292;2024-02-04T07:31:55;3.84;;;3.84;;
50417;SDS011;36346;48.280;14.292;2024-02-04T07:34:24;3.64;;;3.64;;
50417;SDS011;36346;48.280;14.292;2024-02-04T07:36:53;3.36;;;3.36;;
50417;SDS011;36346;48.280;14.292;2024-02-04T07:39:21;3.50;;;3.50;;
50417;SDS011;36346;48.280;14.292;2024-02-04T07:41:50;3.54;;;3.54;;
50417;SDS011;36346;48.280;14.292;2024-02-04T07:44:18;5.20;;;5.18;;
50417;SDS011;36346;48.280;14.292;2024-02-04T07:46:46;4.87;;;4.80;;
50417;SDS011;36346;48.280;14.292;2024-02-04T07:49:14;3.69;;;3.67;;
50417;SDS011;36346;48.280;14.292;2024-02-04T07:51:42;3.65;;;3.65;;
50417;SDS011;36346;48.280;14.292;2024-02-04T07:54:10;4.21;;;4.21;;
50417;SDS011;36346;48.280;14.292;2024-02-04T07:56:38;4.18;;;4.18;;
50417;SDS011;36346;48.280;14.292;2024-02-04T07:59:06;3.21;;;3.21;;
50417;SDS011;36346;48.280;14.292;2024-02-04T08:01:34;3.33;;;3.33;;
50417;SDS011;36346;48.280;14.292;2024-02-04T08:04:02;3.54;;;3.54;;
50417;SDS011;36346;48.280;14.292;2024-02-04T08:06:31;3.92;;;3.92;;
50417;SDS011;36346;48.280;14.292;2024-02-04T08:09:02;4.12;;;4.12;;
50417;SDS011;36346;48.280;14.292;2024-02-04T08:11:30;4.19;;;4.19;;
50417;SDS011;36346;48.280;14.292;2024-02-04T08:13:58;4.18;;;4.18;;
50417;SDS011;36346;48.280;14.292;2024-02-04T08:16:26;4.33;;;4.33;;
50417;SDS011;36346;48.280;14.292;2024-02-04T08:18:54;4.27;;;4.27;;
50417;SDS011;36346;48.280;14.292;2024-02-04T08:21:22;4.16;;;4.16;;
50417;SDS011;36346;48.280;14.292;2024-02-04T08:23:50;3.47;;;3.47;;
50417;SDS011;36346;48.280;14.292;2024-02-04T08:26:18;3.93;;;3.93;;
50417;SDS011;36346;48.280;14.292;2024-02-04T08:28:46;3.76;;;3.76;;
50417;SDS011;36346;48.280;14.292;2024-02-04T08:31:14;3.47;;;3.47;;
50417;SDS011;36346;48.280;14.292;2024-02-04T08:33:42;3.78;;;3.78;;
50417;SDS011;36346;48.280;14.292;2024-02-04T08:36:10;3.90;;;3.90;;
50417;SDS011;36346;48.280;14.292;2024-02-04T08:38:38;3.77;;;3.74;;
50417;SDS011;36346;48.280;14.292;2024-02-04T08:41:06;3.48;;;3.46;;
50417;SDS011;36346;48.280;14.292;2024-02-04T08:43:34;3.83;;;3.81;;
50417;SDS011;36346;48.280;14.292;2024-02-04T08:46:02;3.65;;;3.65;;
50417;SDS011;36346;48.280;14.292;2024-02-04T08:48:41;3.33;;;3.33;;
50417;SDS011;36346;48.280;14.292;2024-02-04T08:51:10;3.58;;;3.58;;
50417;SDS011;36346;48.280;14.292;2024-02-04T08:53:43;3.38;;;3.38;;
50417;SDS011;36346;48.280;14.292;2024-02-04T08:56:11;3.85;;;3.85;;
50417;SDS011;36346;48.280;14.292;2024-02-04T08:58:39;3.60;;;3.60;;
50417;SDS011;36346;48.280;14.292;2024-02-04T09:01:07;3.54;;;3.54;;
50417;SDS011;36346;48.280;14.292;2024-02-04T09:03:35;3.85;;;3.85;;
50417;SDS011;36346;48.280;14.292;2024-02-04T09:06:04;3.54;;;3.54;;
50417;SDS011;36346;48.280;14.292;2024-02-04T09:08:33;3.62;;;3.62;;
50417;SDS011;36346;48.280;14.292;2024-02-04T09:11:01;3.63;;;3.63;;
50417;SDS011;36346;48.280;14.292;2024-02-04T09:13:29;3.35;;;3.35;;
50417;SDS011;36346;48.280;14.292;2024-02-04T09:15:57;2.87;;;2.87;;
50417;SDS011;36346;48.280;14.292;2024-02-04T09:18:25;2.77;;;2.77;;
50417;SDS011;36346;48.280;14.292;2024-02-04T09:20:53;2.66;;;2.66;;
50417;SDS011;36346;48.280;14.292;2024-02-04T09:23:21;2.80;;;2.80;;
50417;SDS011;36346;48.280;14.292;2024-02-04T09:25:49;2.66;;;2.66;;
50417;SDS011;36346;48.280;14.292;2024-02-04T09:28:17;2.65;;;2.65;;
50417;SDS011;36346;48.280;14.292;2024-02-04T09:30:45;3.85;;;3.85;;
50417;SDS011;36346;48.280;14.292;2024-02-04T09:33:14;2.48;;;2.48;;
50417;SDS011;36346;48.280;14.292;2024-02-04T09:35:42;2.54;;;2.54;;
50417;SDS011;36346;48.280;14.292;2024-02-04T09:38:10;2.58;;;2.58;;
50417;SDS011;36346;48.280;14.292;2024-02-04T09:40:41;3.02;;;3.02;;
50417;SDS011;36346;48.280;14.292;2024-02-04T09:43:09;2.91;;;2.91;;
50417;SDS011;36346;48.280;14.292;2024-02-04T09:45:38;3.32;;;3.32;;
50417;SDS011;36346;48.280;14.292;2024-02-04T09:48:08;3.06;;;3.06;;
50417;SDS011;36346;48.280;14.292;2024-02-04T09:50:37;2.90;;;2.90;;
50417;SDS011;36346;48.280;14.292;2024-02-04T09:53:06;2.87;;;2.87;;
50417;SDS011;36346;48.280;14.292;2024-02-04T09:55:37;2.71;;;2.71;;
50417;SDS011;36346;48.280;14.292;2024-02-04T09:58:08;3.26;;;3.26;;
50417;SDS011;36346;48.280;14.292;2024-02-04T10:00:36;2.69;;;2.69;;
50417;SDS011;36346;48.280;14.292;2024-02-04T10:03:06;3.07;;;3.07;;
50417;SDS011;36346;48.280;14.292;2024-02-04T10:05:34;2.71;;;2.71;;
50417;SDS011;36346;48.280;14.292;2024-02-04T10:08:02;2.77;;;2.77;;
50417;SDS011;36346;48.280;14.292;2024-02-04T10:10:31;2.72;;;2.72;;
50417;SDS011;36346;48.280;14.292;2024-02-04T10:13:04;2.74;;;2.74;;
50417;SDS011;36346;48.280;14.292;2024-02-04T10:15:36;2.52;;;2.52;;
50417;SDS011;36346;48.280;14.292;2024-02-04T10:18:04;2.74;;;2.74;;
50417;SDS011;36346;48.280;14.292;2024-02-04T10:20:35;2.63;;;2.61;;
50417;SDS011;36346;48.280;14.292;2024-02-04T10:23:04;2.74;;;2.71;;
50417;SDS011;36346;48.280;14.292;2024-02-04T10:25:32;2.65;;;2.65;;
50417;SDS011;36346;48.280;14.292;2024-02-04T10:28:00;2.76;;;2.76;;
50417;SDS011;36346;48.280;14.292;2024-02-04T10:30:28;2.93;;;2.93;;
50417;SDS011;36346;48.280;14.292;2024-02-04T10:32:56;2.83;;;2.83;;
50417;SDS011;36346;48.280;14.292;2024-02-04T10:35:24;2.74;;;2.74;;
50417;SDS011;36346;48.280;14.292;2024-02-04T10:37:53;2.77;;;2.76;;
50417;SDS011;36346;48.280;14.292;2024-02-04T10:40:21;2.72;;;2.72;;
50417;SDS011;36346;48.280;14.292;2024-02-04T10:42:49;2.89;;;2.87;;
50417;SDS011;36346;48.280;14.292;2024-02-04T10:45:18;3.20;;;3.18;;
50417;SDS011;36346;48.280;14.292;2024-02-04T10:47:52;3.09;;;3.09;;
50417;SDS011;36346;48.280;14.292;2024-02-04T10:50:27;2.94;;;2.94;;
50417;SDS011;36346;48.280;14.292;2024-02-04T10:52:58;3.47;;;3.46;;
50417;SDS011;36346;48.280;14.292;2024-02-04T10:55:27;2.64;;;2.64;;
50417;SDS011;36346;48.280;14.292;2024-02-04T10:57:58;2.67;;;2.67;;
50417;SDS011;36346;48.280;14.292;2024-02-04T11:00:27;2.53;;;2.53;;
50417;SDS011;36346;48.280;14.292;2024-02-04T11:02:56;2.53;;;2.53;;
50417;SDS011;36346;48.280;14.292;2024-02-04T11:05:25;2.75;;;2.75;;
50417;SDS011;36346;48.280;14.292;2024-02-04T11:07:54;2.77;;;2.77;;
50417;SDS011;36346;48.280;14.292;2024-02-04T11:10:22;2.78;;;2.78;;
50417;SDS011;36346;48.280;14.292;2024-02-04T11:12:52;2.55;;;2.55;;
50417;SDS011;36346;48.280;14.292;2024-02-04T11:15:20;2.68;;;2.68;;
50417;SDS011;36346;48.280;14.292;2024-02-04T11:17:51;2.82;;;2.82;;
50417;SDS011;36346;48.280;14.292;2024-02-04T11:26:54;2.82;;;2.82;;
50417;SDS011;36346;48.280;14.292;2024-02-04T11:29:23;2.71;;;2.71;;
50417;SDS011;36346;48.280;14.292;2024-02-04T11:31:52;2.73;;;2.73;;
50417;SDS011;36346;48.280;14.292;2024-02-04T11:34:23;2.61;;;2.61;;
50417;SDS011;36346;48.280;14.292;2024-02-04T11:36:51;3.73;;;3.72;;
50417;SDS011;36346;48.280;14.292;2024-02-04T11:39:21;2.86;;;2.86;;
50417;SDS011;36346;48.280;14.292;2024-02-04T11:41:50;2.23;;;2.23;;
50417;SDS011;36346;48.280;14.292;2024-02-04T11:44:22;2.36;;;2.36;;
50417;SDS011;36346;48.280;14.292;2024-02-04T11:46:52;2.77;;;2.77;;
50417;SDS011;36346;48.280;14.292;2024-02-04T11:49:23;2.53;;;2.53;;
50417;SDS011;36346;48.280;14.292;2024-02-04T11:51:53;2.83;;;2.83;;
50417;SDS011;36346;48.280;14.292;2024-02-04T11:54:22;2.69;;;2.69;;
50417;SDS011;36346;48.280;14.292;2024-02-04T11:56:50;2.53;;;2.53;;
50417;SDS011;36346;48.280;14.292;2024-02-04T11:59:24;2.61;;;2.61;;
50417;SDS011;36346;48.280;14.292;2024-02-04T12:01:56;2.45;;;2.45;;
50417;SDS011;36346;48.280;14.292;2024-02-04T12:04:27;2.51;;;2.51;;
50417;SDS011;36346;48.280;14.292;2024-02-04T12:06:55;2.38;;;2.38;;
50417;SDS011;36346;48.280;14.292;2024-02-04T12:09:24;2.91;;;2.91;;
50417;SDS011;36346;48.280;14.292;2024-02-04T12:11:54;2.74;;;2.74;;
50417;SDS011;36346;48.280;14.292;2024-02-04T12:14:22;2.65;;;2.65;;
50417;SDS011;36346;48.280;14.292;2024-02-04T12:16:51;2.65;;;2.65;;
50417;SDS011;36346;48.280;14.292;2024-02-04T12:19:19;2.49;;;2.49;;
50417;SDS011;36346;48.280;14.292;2024-02-04T12:21:48;2.42;;;2.42;;
50417;SDS011;36346;48.280;14.292;2024-02-04T12:24:16;2.43;;;2.43;;
50417;SDS011;36346;48.280;14.292;2024-02-04T12:26:45;2.43;;;2.43;;
50417;SDS011;36346;48.280;14.292;2024-02-04T12:29:14;2.39;;;2.39;;
50417;SDS011;36346;48.280;14.292;2024-02-04T12:31:42;2.17;;;2.17;;
50417;SDS011;36346;48.280;14.292;2024-02-04T12:34:13;2.09;;;2.09;;
50417;SDS011;36346;48.280;14.292;2024-02-04T12:36:41;1.89;;;1.89;;
50417;SDS011;36346;48.280;14.292;2024-02-04T12:39:12;1.83;;;1.83;;
50417;SDS011;36346;48.280;14.292;2024-02-04T12:41:41;1.98;;;1.98;;
50417;SDS011;36346;48.280;14.292;2024-02-04T12:44:09;4.51;;;4.51;;
50417;SDS011;36346;48.280;14.292;2024-02-04T12:46:37;2.53;;;2.53;;
50417;SDS011;36346;48.280;14.292;2024-02-04T12:49:05;1.95;;;1.95;;
50417;SDS011;36346;48.280;14.292;2024-02-04T12:51:33;1.81;;;1.81;;
50417;SDS011;36346;48.280;14.292;2024-02-04T12:54:09;2.11;;;2.11;;
50417;SDS011;36346;48.280;14.292;2024-02-04T12:59:32;2.13;;;2.13;;
50417;SDS011;36346;48.280;14.292;2024-02-04T13:02:06;2.01;;;2.01;;
50417;SDS011;36346;48.280;14.292;2024-02-04T13:04:39;1.89;;;1.89;;
50417;SDS011;36346;48.280;14.292;2024-02-04T13:07:09;1.95;;;1.95;;
50417;SDS011;36346;48.280;14.292;2024-02-04T13:09:39;1.79;;;1.79;;
50417;SDS011;36346;48.280;14.292;2024-02-04T13:12:08;1.82;;;1.82;;
50417;SDS011;36346;48.280;14.292;2024-02-04T13:14:37;1.64;;;1.64;;
50417;SDS011;36346;48.280;14.292;2024-02-04T13:17:06;1.73;;;1.73;;
50417;SDS011;36346;48.280;14.292;2024-02-04T13:19:35;1.90;;;1.90;;
50417;SDS011;36346;48.280;14.292;2024-02-04T13:22:05;1.99;;;1.99;;
50417;SDS011;36346;48.280;14.292;2024-02-04T13:24:34;1.82;;;1.82;;
50417;SDS011;36346;48.280;14.292;2024-02-04T13:27:02;2.68;;;2.67;;
50417;SDS011;36346;48.280;14.292;2024-02-04T13:29:32;2.45;;;2.44;;
50417;SDS011;36346;48.280;14.292;2024-02-04T13:31:59;2.23;;;2.22;;
50417;SDS011;36346;48.280;14.292;2024-02-04T13:34:27;1.88;;;1.88;;
50417;SDS011;36346;48.280;14.292;2024-02-04T13:36:56;1.98;;;1.98;;
50417;SDS011;36346;48.280;14.292;2024-02-04T13:39:24;1.96;;;1.96;;
50417;SDS011;36346;48.280;14.292;2024-02-04T13:41:52;1.92;;;1.92;;
50417;SDS011;36346;48.280;14.292;2024-02-04T13:44:20;1.85;;;1.85;;
50417;SDS011;36346;48.280;14.292;2024-02-04T13:46:48;1.66;;;1.66;;
50417;SDS011;36346;48.280;14.292;2024-02-04T13:49:16;1.81;;;1.81;;
50417;SDS011;36346;48.280;14.292;2024-02-04T13:51:44;1.78;;;1.78;;
50417;SDS011;36346;48.280;14.292;2024-02-04T13:54:13;1.73;;;1.72;;
50417;SDS011;36346;48.280;14.292;2024-02-04T13:56:45;1.78;;;1.78;;
50417;SDS011;36346;48.280;14.292;2024-02-04T13:59:14;1.76;;;1.76;;
50417;SDS011;36346;48.280;14.292;2024-02-04T14:01:42;1.74;;;1.74;;
50417;SDS011;36346;48.280;14.292;2024-02-04T14:04:11;1.91;;;1.91;;
50417;SDS011;36346;48.280;14.292;2024-02-04T14:06:40;1.68;;;1.68;;
50417;SDS011;36346;48.280;14.292;2024-02-04T14:09:07;4.90;;;4.89;;
50417;SDS011;36346;48.280;14.292;2024-02-04T14:11:36;5.64;;;5.57;;
50417;SDS011;36346;48.280;14.292;2024-02-04T14:14:04;2.80;;;2.76;;
50417;SDS011;36346;48.280;14.292;2024-02-04T14:16:32;1.77;;;1.77;;
50417;SDS011;36346;48.280;14.292;2024-02-04T14:19:00;1.74;;;1.74;;
50417;SDS011;36346;48.280;14.292;2024-02-04T14:21:28;1.66;;;1.66;;
50417;SDS011;36346;48.280;14.292;2024-02-04T14:23:57;2.04;;;2.03;;
50417;SDS011;36346;48.280;14.292;2024-02-04T14:26:24;6.28;;;6.21;;
50417;SDS011;36346;48.280;14.292;2024-02-04T14:28:52;2.77;;;2.72;;
50417;SDS011;36346;48.280;14.292;2024-02-04T14:31:20;1.59;;;1.57;;
50417;SDS011;36346;48.280;14.292;2024-02-04T14:33:49;1.63;;;1.62;;
50417;SDS011;36346;48.280;14.292;2024-02-04T14:36:18;1.59;;;1.59;;
50417;SDS011;36346;48.280;14.292;2024-02-04T14:38:47;1.53;;;1.53;;
50417;SDS011;36346;48.280;14.292;2024-02-04T14:41:15;1.39;;;1.39;;
50417;SDS011;36346;48.280;14.292;2024-02-04T14:43:43;1.43;;;1.43;;
50417;SDS011;36346;48.280;14.292;2024-02-04T14:46:11;1.77;;;1.77;;
50417;SDS011;36346;48.280;14.292;2024-02-04T14:48:39;1.63;;;1.63;;
50417;SDS011;36346;48.280;14.292;2024-02-04T14:51:10;1.76;;;1.75;;
50417;SDS011;36346;48.280;14.292;2024-02-04T14:53:38;1.70;;;1.68;;
50417;SDS011;36346;48.280;14.292;2024-02-04T14:56:06;1.77;;;1.76;;
50417;SDS011;36346;48.280;14.292;2024-02-04T14:58:36;1.41;;;1.40;;